Time;durP1;ratioP1;P1;durP2;ratioP2;P2;SDS_P1;SDS_P2;PMS_P1;PMS_P2;Temp;Humidity;BMP_temperature;BMP_pressure;BME280_temperature;BME280_humidity;BME280_pressure;Samples;Min_cycle;Max_cycle;Signal;HPM_P1;HPM_P2
2022/12/12 00:00:40;;;;;;;25.58;17.08;;;;;;;2.38;78.82;97377.38;4186394;28;20739;-82
2022/12/12 00:02:43;;;;;;;32.70;16.90;;;;;;;2.39;78.92;97377.31;4198038;28;20208;-80
2022/12/12 00:04:47;;;;;;;26.35;15.68;;;;;;;2.36;78.77;97380.03;4185050;28;20271;-82
2022/12/12 00:06:50;;;;;;;26.77;17.15;;;;;;;2.38;79.38;97382.53;4193064;28;20219;-83
2022/12/12 00:08:54;;;;;;;26.67;16.67;;;;;;;2.38;79.37;97382.53;4180121;28;20197;-82
2022/12/12 00:10:57;;;;;;;28.80;16.95;;;;;;;2.39;79.59;97374.72;4200965;28;20224;-82
2022/12/12 00:13:01;;;;;;;35.22;19.95;;;;;;;2.40;79.72;97383.28;4182210;28;20247;-83
2022/12/12 00:15:05;;;;;;;28.40;17.00;;;;;;;2.40;79.00;97376.38;4199449;28;20192;-82
2022/12/12 00:17:08;;;;;;;29.48;18.88;;;;;;;2.39;78.87;97377.31;4184622;28;20214;-82
2022/12/12 00:19:11;;;;;;;26.58;17.13;;;;;;;2.37;79.46;97378.28;4193693;28;20205;-81
2022/12/12 00:21:18;;;;;;;27.08;17.27;;;;;;;2.36;79.66;97377.44;4195551;28;20254;-83
2022/12/12 00:23:22;;;;;;;28.23;17.10;;;;;;;2.35;79.85;97383.50;4196366;28;20715;-81
2022/12/12 00:25:26;;;;;;;30.15;18.55;;;;;;;2.34;79.79;97376.66;4197752;28;20273;-81
2022/12/12 00:27:31;;;;;;;30.92;17.80;;;;;;;2.36;80.19;97385.16;4181631;28;20284;-81
2022/12/12 00:29:34;;;;;;;30.58;19.00;;;;;;;2.36;80.27;97374.03;4191441;28;20237;-81
2022/12/12 00:31:38;;;;;;;31.27;18.90;;;;;;;2.34;80.37;97374.09;4183204;28;20202;-81
2022/12/12 00:33:42;;;;;;;30.67;18.17;;;;;;;2.34;80.71;97375.84;4196586;28;20227;-83
2022/12/12 00:35:45;;;;;;;28.75;17.50;;;;;;;2.34;80.18;97376.66;4177521;28;20198;-83
2022/12/12 00:37:48;;;;;;;26.77;16.60;;;;;;;2.33;80.42;97375.91;4200437;28;20339;-83
2022/12/12 00:39:51;;;;;;;28.17;17.27;;;;;;;2.31;81.19;97370.03;4185744;28;20233;-82
2022/12/12 00:41:55;;;;;;;28.40;16.48;;;;;;;2.29;81.00;97372.66;4194786;28;20300;-81
2022/12/12 00:44:01;;;;;;;28.20;17.20;;;;;;;2.29;81.67;97369.28;4194977;28;20216;-81
2022/12/12 00:46:05;;;;;;;26.63;17.17;;;;;;;2.29;81.88;97379.56;4202352;28;20361;-81
2022/12/12 00:48:08;;;;;;;27.35;16.95;;;;;;;2.30;81.63;97373.50;4182124;28;20217;-82
2022/12/12 00:50:11;;;;;;;28.45;17.95;;;;;;;2.30;81.55;97374.34;4194953;28;20252;-82
2022/12/12 00:52:14;;;;;;;27.40;17.38;;;;;;;2.31;81.68;97376.00;4188169;28;20204;-82
2022/12/12 00:54:17;;;;;;;36.35;19.40;;;;;;;2.31;81.69;97370.03;4194959;28;20209;-83
2022/12/12 00:56:22;;;;;;;31.48;17.92;;;;;;;2.26;81.69;97374.56;4199656;28;20225;-83
2022/12/12 00:58:27;;;;;;;33.75;19.67;;;;;;;2.24;81.73;97373.78;4185809;28;20206;-82
2022/12/12 01:00:30;;;;;;;28.17;18.38;;;;;;;2.26;81.74;97372.81;4195026;28;20857;-82
2022/12/12 01:02:33;;;;;;;27.85;17.70;;;;;;;2.26;81.43;97377.97;4186602;28;20205;-82
2022/12/12 01:04:36;;;;;;;33.58;19.70;;;;;;;2.26;81.44;97367.66;4201906;28;20244;-81
2022/12/12 01:06:39;;;;;;;32.95;18.95;;;;;;;2.25;81.63;97376.28;4182578;28;20705;-81
2022/12/12 01:08:43;;;;;;;31.95;18.60;;;;;;;2.25;81.30;97373.72;4200915;28;20208;-81
2022/12/12 01:10:46;;;;;;;29.27;17.88;;;;;;;2.23;81.49;97375.53;4197608;28;20230;-81
2022/12/12 01:12:49;;;;;;;29.88;18.48;;;;;;;2.21;81.68;97379.06;4197424;28;20255;-82
2022/12/12 01:14:53;;;;;;;52.28;25.77;;;;;;;2.24;81.16;97386.63;4198389;28;20205;-83
2022/12/12 01:16:56;;;;;;;48.50;25.60;;;;;;;2.20;80.84;97377.41;4174421;28;20219;-82
2022/12/12 01:19:00;;;;;;;48.45;25.17;;;;;;;2.16;81.28;97384.44;4198862;28;20481;-82
2022/12/12 01:21:03;;;;;;;43.33;23.30;;;;;;;2.15;81.30;97387.91;4187162;28;20734;-82
2022/12/12 01:23:06;;;;;;;33.22;18.70;;;;;;;2.17;81.49;97387.84;4195307;28;20201;-84
2022/12/12 01:25:10;;;;;;;33.72;19.98;;;;;;;2.19;81.34;97391.19;4197440;28;20209;-82
2022/12/12 01:27:13;;;;;;;35.63;21.17;;;;;;;2.19;81.16;97388.59;4184237;28;20206;-82
2022/12/12 01:29:16;;;;;;;33.45;19.33;;;;;;;2.21;81.23;97389.34;4197095;28;20350;-83
2022/12/12 01:31:21;;;;;;;33.85;20.17;;;;;;;2.17;81.53;97387.84;4199534;28;20774;-82
2022/12/12 01:33:24;;;;;;;31.05;19.05;;;;;;;2.15;81.68;97382.78;4179276;28;20202;-83
2022/12/12 01:35:27;;;;;;;33.28;19.65;;;;;;;2.13;81.75;97379.44;4198673;28;20217;-82
2022/12/12 01:37:30;;;;;;;36.40;19.80;;;;;;;2.09;81.79;97388.22;4196009;28;20258;-82
2022/12/12 01:39:33;;;;;;;34.20;19.58;;;;;;;2.07;82.20;97387.44;4185787;28;20255;-83
2022/12/12 01:41:37;;;;;;;31.98;18.95;;;;;;;2.05;82.58;97383.28;4184450;28;20197;-82
2022/12/12 01:43:40;;;;;;;35.45;19.52;;;;;;;2.06;82.20;97387.50;4198755;28;20333;-82
2022/12/12 01:46:32;;;;;;;29.48;18.02;;;;;;;2.04;82.31;97386.75;4194369;28;20210;-82
2022/12/12 01:48:38;;;;;;;32.90;17.65;;;;;;;1.97;82.52;97385.34;4197377;28;20300;-82
2022/12/12 01:50:42;;;;;;;29.55;17.90;;;;;;;1.92;82.77;97383.03;4196473;28;20266;-82
2022/12/12 01:52:47;;;;;;;29.98;17.65;;;;;;;1.90;82.47;97389.13;4196168;28;20240;-83
2022/12/12 01:54:53;;;;;;;30.70;17.45;;;;;;;1.91;82.63;97377.94;4182821;28;20243;-83
2022/12/12 01:56:58;;;;;;;33.47;19.63;;;;;;;1.91;82.32;97388.22;4195523;28;20201;-82
2022/12/12 01:59:05;;;;;;;31.33;19.70;;;;;;;1.89;82.28;97395.16;4186187;28;20202;-82
2022/12/12 02:01:09;;;;;;;30.02;18.95;;;;;;;1.88;82.04;97389.19;4196809;28;20201;-82
2022/12/12 02:03:14;;;;;;;34.65;19.13;;;;;;;1.87;82.41;97384.94;4196692;28;20721;-83
2022/12/12 02:05:20;;;;;;;30.98;17.42;;;;;;;1.85;82.94;97378.22;4184207;28;20705;-82
2022/12/12 02:07:23;;;;;;;31.48;18.67;;;;;;;1.85;82.72;97380.81;4194982;28;20201;-82
2022/12/12 02:09:26;;;;;;;31.10;18.50;;;;;;;1.85;82.89;97377.38;4187376;28;20201;-82
2022/12/12 02:11:31;;;;;;;34.30;19.40;;;;;;;1.87;83.03;97383.31;4197295;28;20300;-83
2022/12/12 02:13:34;;;;;;;30.95;17.85;;;;;;;1.87;83.32;97382.38;4204051;28;20196;-82
2022/12/12 02:15:44;;;;;;;31.60;19.48;;;;;;;1.87;83.13;97377.22;4196976;28;20215;-82
2022/12/12 02:17:55;;;;;;;30.40;18.52;;;;;;;1.85;82.63;97385.94;4207847;28;20193;-82
2022/12/12 02:20:32;;;;;;;31.55;17.65;;;;;;;1.86;82.42;97397.03;4189787;28;20201;-82
2022/12/12 02:22:53;;;;;;;30.08;17.40;;;;;;;1.84;82.75;97404.00;4196694;28;20715;-82
2022/12/12 02:25:16;;;;;;;31.42;17.70;;;;;;;1.75;82.64;97396.69;4201376;28;20209;-82
2022/12/12 02:27:44;;;;;;;27.58;17.90;;;;;;;1.74;82.52;97395.03;4190682;28;20209;-82
2022/12/12 02:30:04;;;;;;;30.05;17.30;;;;;;;1.71;82.72;97398.56;4196864;28;20634;-83
2022/12/12 02:32:10;;;;;;;29.73;17.70;;;;;;;1.67;82.47;97391.06;4185166;28;20813;-82
2022/12/12 02:34:19;;;;;;;32.08;18.08;;;;;;;1.61;82.89;97392.19;4201779;28;20208;-82
2022/12/12 02:36:27;;;;;;;30.50;18.65;;;;;;;1.58;83.49;97387.19;4201404;28;20213;-84
2022/12/12 02:38:35;;;;;;;30.38;17.48;;;;;;;1.58;82.78;97387.19;4181787;28;20233;-82
2022/12/12 02:40:44;;;;;;;27.75;16.77;;;;;;;1.56;82.96;97383.81;4198268;28;20195;-83
2022/12/12 02:42:51;;;;;;;28.83;17.60;;;;;;;1.57;82.68;97392.38;4193242;28;20212;-83
2022/12/12 02:44:57;;;;;;;31.58;17.25;;;;;;;1.52;83.39;97392.59;4192842;28;20213;-83
2022/12/12 02:47:03;;;;;;;31.58;16.85;;;;;;;1.50;82.56;97396.13;4201476;28;20201;-83
2022/12/12 02:49:10;;;;;;;29.50;18.58;;;;;;;1.49;82.91;97399.59;4196498;28;21039;-83
2022/12/12 02:51:14;;;;;;;28.02;18.13;;;;;;;1.43;83.00;97392.16;4193075;28;20661;-82
2022/12/12 02:53:18;;;;;;;29.45;18.17;;;;;;;1.40;83.49;97389.72;4197440;28;20597;-82
2022/12/12 02:55:21;;;;;;;33.33;18.98;;;;;;;1.42;83.39;97396.44;4201475;28;20254;-83
2022/12/12 02:57:26;;;;;;;29.77;19.17;;;;;;;1.41;83.26;97404.22;4191140;28;20344;-83
2022/12/12 02:59:31;;;;;;;34.85;19.15;;;;;;;1.40;83.52;97400.81;4183092;28;20290;-83
2022/12/12 03:01:38;;;;;;;34.25;19.70;;;;;;;1.39;83.25;97405.22;4187667;28;20720;-82
2022/12/12 03:08:50;;;;;;;29.92;17.35;;;;;;;1.27;83.22;97408.31;4181970;28;20650;-82
2022/12/12 03:10:56;;;;;;;27.20;16.80;;;;;;;1.22;82.80;97405.94;4182664;28;20300;-83
2022/12/12 03:13:06;;;;;;;31.33;18.40;;;;;;;1.19;83.57;97411.19;4177271;28;20308;-83
2022/12/12 03:15:15;;;;;;;31.15;19.13;;;;;;;1.17;83.09;97407.84;4196481;28;20205;-83
2022/12/12 03:17:25;;;;;;;29.92;17.15;;;;;;;1.16;83.41;97397.66;4197114;28;21915;-82
2022/12/12 03:19:38;;;;;;;30.48;17.65;;;;;;;1.16;83.54;97403.63;4202452;28;20288;-82
2022/12/12 03:21:47;;;;;;;33.75;18.55;;;;;;;1.18;83.88;97395.84;4195863;28;21620;-83
2022/12/12 03:23:54;;;;;;;30.42;17.75;;;;;;;1.19;83.03;97400.06;4196200;28;20200;-83
2022/12/12 03:26:00;;;;;;;30.55;17.80;;;;;;;1.12;83.48;97393.56;4195114;28;20294;-82
2022/12/12 03:28:06;;;;;;;29.88;19.20;;;;;;;1.07;83.96;97392.94;4199755;28;20307;-84
2022/12/12 03:30:12;;;;;;;26.98;17.13;;;;;;;1.07;83.33;97392.94;4196510;28;20213;-83
2022/12/12 03:32:19;;;;;;;32.92;18.23;;;;;;;1.07;83.50;97393.75;4183550;28;20226;-82
2022/12/12 03:34:25;;;;;;;32.00;18.33;;;;;;;1.07;84.28;97388.63;4186658;28;20591;-83
2022/12/12 03:36:32;;;;;;;27.00;16.98;;;;;;;1.09;84.67;97394.50;4202223;28;20586;-82
2022/12/12 03:38:40;;;;;;;32.80;18.88;;;;;;;1.11;84.05;97397.00;4195388;28;20651;-82
2022/12/12 03:40:47;;;;;;;30.63;18.00;;;;;;;1.15;84.25;97396.00;4180997;28;20205;-82
2022/12/12 03:42:56;;;;;;;31.13;17.52;;;;;;;1.14;83.99;97395.16;4197430;28;20201;-82
2022/12/12 03:45:03;;;;;;;32.72;18.15;;;;;;;1.15;84.22;97393.44;4199187;28;20265;-82
2022/12/12 03:47:08;;;;;;;30.40;17.63;;;;;;;1.18;83.96;97399.25;4197657;28;20202;-82
2022/12/12 03:49:14;;;;;;;31.35;17.45;;;;;;;1.16;84.13;97397.66;4189073;28;20672;-81
2022/12/12 03:51:21;;;;;;;32.10;19.00;;;;;;;1.16;84.60;97402.81;4186234;28;20670;-82
2022/12/12 03:53:29;;;;;;;29.52;17.42;;;;;;;1.16;84.32;97406.19;4201709;28;20207;-82
2022/12/12 03:55:37;;;;;;;39.15;20.00;;;;;;;1.18;83.86;97401.81;4196637;28;20754;-83
2022/12/12 03:57:44;;;;;;;32.50;18.48;;;;;;;1.15;84.01;97404.50;4180615;28;20205;-82
2022/12/12 03:59:52;;;;;;;33.70;18.80;;;;;;;1.13;84.34;97405.50;4179751;28;20275;-83
2022/12/12 04:01:58;;;;;;;30.65;17.63;;;;;;;1.10;84.11;97406.44;4193676;28;20211;-83
2022/12/12 04:04:05;;;;;;;27.58;17.50;;;;;;;1.05;83.45;97404.97;4183377;28;20224;-82
2022/12/12 04:06:28;;;;;;;27.70;17.30;;;;;;;1.01;84.11;97403.44;4182627;28;20209;-82
2022/12/12 04:08:32;;;;;;;28.33;16.95;;;;;;;0.99;83.76;97402.66;4196585;28;20539;-82
2022/12/12 04:13:09;;;;;;;29.70;17.70;;;;;;;1.00;84.81;97404.34;4198159;28;20249;-83
2022/12/12 04:15:27;;;;;;;29.50;17.83;;;;;;;0.99;84.52;97410.34;4213693;28;20233;-82
2022/12/12 04:17:36;;;;;;;29.80;17.73;;;;;;;0.96;84.42;97406.22;4181561;28;20718;-83
2022/12/12 04:24:36;;;;;;;33.05;19.20;;;;;;;0.98;85.18;97413.84;4204372;28;20196;-83
2022/12/12 04:26:43;;;;;;;30.15;18.17;;;;;;;1.01;84.64;97411.16;4197454;28;20746;-82
2022/12/12 04:28:55;;;;;;;33.88;18.95;;;;;;;1.05;84.50;97415.22;4177590;28;20234;-83
2022/12/12 04:31:01;;;;;;;34.60;18.65;;;;;;;1.05;84.50;97415.22;4188268;28;20193;-82
2022/12/12 04:33:06;;;;;;;31.42;19.02;;;;;;;1.06;84.57;97420.31;4197162;28;20247;-82
2022/12/12 04:35:13;;;;;;;34.42;19.08;;;;;;;1.07;84.96;97421.16;4199571;28;20296;-83
2022/12/12 04:37:19;;;;;;;35.17;19.05;;;;;;;1.05;84.70;97425.50;4187696;28;20220;-83
2022/12/12 04:39:23;;;;;;;30.42;17.58;;;;;;;1.07;85.37;97423.72;4186058;28;20237;-83
2022/12/12 04:41:27;;;;;;;35.80;18.90;;;;;;;1.11;84.71;97433.78;4186456;28;20201;-82
2022/12/12 04:43:33;;;;;;;26.85;16.40;;;;;;;1.14;85.06;97431.09;4204596;28;20204;-83
2022/12/12 04:45:39;;;;;;;31.33;17.42;;;;;;;1.17;84.47;97433.50;4185427;28;20213;-84
2022/12/12 04:47:45;;;;;;;31.70;17.58;;;;;;;1.15;84.83;97437.88;4196771;28;20224;-82
2022/12/12 04:49:50;;;;;;;36.15;18.77;;;;;;;1.14;84.56;97435.38;4182437;28;20207;-83
2022/12/12 04:51:55;;;;;;;32.65;17.83;;;;;;;1.13;84.80;97433.72;4183482;28;20614;-82
2022/12/12 04:54:02;;;;;;;30.80;17.42;;;;;;;1.14;84.48;97437.94;4179098;28;20203;-83
2022/12/12 04:56:07;;;;;;;34.05;18.75;;;;;;;1.16;84.87;97434.44;4200072;28;20213;-82
2022/12/12 04:58:11;;;;;;;35.92;19.15;;;;;;;1.20;85.00;97440.25;4185091;28;20202;-82
2022/12/12 05:00:16;;;;;;;28.52;17.20;;;;;;;1.19;84.45;97433.44;4198829;28;20276;-82
2022/12/12 05:02:27;;;;;;;31.20;18.13;;;;;;;1.19;84.93;97438.56;4195191;28;20308;-85
2022/12/12 05:04:33;;;;;;;30.75;18.15;;;;;;;1.19;84.89;97438.56;4180910;28;20232;-83
2022/12/12 05:06:39;;;;;;;28.52;17.55;;;;;;;1.17;85.01;97435.25;4183085;28;20260;-83
2022/12/12 05:08:43;;;;;;;32.67;19.02;;;;;;;1.18;84.34;97444.63;4189523;28;20247;-83
2022/12/12 05:10:51;;;;;;;30.23;17.92;;;;;;;1.21;84.53;97441.94;4188133;28;20705;-86
2022/12/12 05:12:58;;;;;;;29.58;18.10;;;;;;;1.17;84.77;97448.09;4201028;28;20683;-83
2022/12/12 05:15:01;;;;;;;31.60;17.50;;;;;;;1.19;84.09;97457.41;4186118;28;20228;-83
2022/12/12 05:17:07;;;;;;;30.83;17.90;;;;;;;1.19;84.29;97447.13;4195892;28;20244;-82
2022/12/12 05:19:10;;;;;;;30.80;18.45;;;;;;;1.19;84.14;97459.97;4197045;28;20205;-83
2022/12/12 05:21:14;;;;;;;32.20;18.40;;;;;;;1.19;84.45;97461.69;4201212;28;20295;-84
2022/12/12 05:23:17;;;;;;;29.48;17.58;;;;;;;1.18;84.14;97468.56;4196696;28;20233;-83
2022/12/12 05:25:20;;;;;;;29.35;18.45;;;;;;;1.20;84.62;97456.47;4202080;28;20759;-83
2022/12/12 05:27:23;;;;;;;29.20;17.35;;;;;;;1.18;84.56;97462.59;4181848;28;20210;-84
2022/12/12 05:29:26;;;;;;;29.23;17.15;;;;;;;1.17;84.25;97464.31;4189561;28;20255;-84
2022/12/12 05:31:29;;;;;;;32.05;18.33;;;;;;;1.17;84.36;97466.06;4187602;28;20208;-82
2022/12/12 05:33:34;;;;;;;28.17;18.45;;;;;;;1.12;84.49;97463.69;4196207;28;20337;-83
2022/12/12 05:35:37;;;;;;;31.67;19.08;;;;;;;1.14;84.29;97466.19;4196764;28;20201;-83
2022/12/12 05:37:40;;;;;;;29.10;18.20;;;;;;;1.17;84.78;97472.00;4197474;28;20213;-83
2022/12/12 05:39:48;;;;;;;35.22;19.50;;;;;;;1.17;84.37;97461.75;4181677;28;20607;-82
2022/12/12 05:41:51;;;;;;;30.80;18.10;;;;;;;1.19;84.68;97459.97;4180532;28;20681;-84
2022/12/12 05:43:54;;;;;;;30.55;18.33;;;;;;;1.18;85.17;97470.31;4193625;28;20201;-85
2022/12/12 05:45:57;;;;;;;33.80;19.00;;;;;;;1.21;84.33;97457.34;4193179;28;20679;-85
2022/12/12 05:48:00;;;;;;;30.98;18.00;;;;;;;1.20;84.87;97466.75;4180486;28;20263;-83
2022/12/12 05:50:06;;;;;;;31.45;19.52;;;;;;;1.16;84.71;97470.38;4181793;28;20267;-84
2022/12/12 05:52:09;;;;;;;57.05;32.90;;;;;;;1.19;84.79;97475.38;4197839;28;20652;-83
2022/12/12 05:54:13;;;;;;;38.47;21.42;;;;;;;1.22;84.99;97466.69;4186718;28;20232;-83
2022/12/12 05:56:16;;;;;;;121.22;65.75;;;;;;;1.22;84.69;97470.09;4202382;28;20295;-83
2022/12/12 05:58:20;;;;;;;39.88;22.65;;;;;;;1.23;84.60;97470.94;4180241;28;20210;-84
2022/12/12 06:00:23;;;;;;;32.03;20.17;;;;;;;1.22;84.49;97471.81;4187594;28;20581;-84
2022/12/12 06:02:26;;;;;;;34.22;21.33;;;;;;;1.21;85.08;97476.13;4185426;28;20194;-84
2022/12/12 06:04:29;;;;;;;49.17;28.23;;;;;;;1.23;84.97;97478.63;4196467;28;20223;-83
2022/12/12 06:06:34;;;;;;;35.63;22.33;;;;;;;1.29;85.08;97483.50;4193819;28;20200;-84
2022/12/12 06:08:38;;;;;;;34.78;22.90;;;;;;;1.31;85.12;97481.72;4200514;28;20201;-83
2022/12/12 06:10:41;;;;;;;30.13;18.25;;;;;;;1.32;84.34;97480.81;4183925;28;20658;-83
2022/12/12 06:12:44;;;;;;;31.65;18.10;;;;;;;1.31;84.22;97490.28;4187261;28;20202;-84
2022/12/12 06:14:49;;;;;;;30.80;19.98;;;;;;;1.31;84.56;97489.41;4195294;28;20202;-84
2022/12/12 06:16:52;;;;;;;28.35;16.88;;;;;;;1.30;84.53;97488.59;4192247;28;20209;-83
2022/12/12 06:18:55;;;;;;;33.75;18.52;;;;;;;1.28;84.84;97492.09;4191560;28;20700;-83
2022/12/12 06:21:03;;;;;;;36.72;20.35;;;;;;;1.26;85.22;97488.78;4217602;28;20199;-83
2022/12/12 06:23:07;;;;;;;30.27;19.65;;;;;;;1.25;85.09;97490.53;4197497;28;20299;-84
2022/12/12 06:25:11;;;;;;;34.50;20.00;;;;;;;1.23;84.61;97491.47;4193941;28;20677;-83
2022/12/12 06:27:15;;;;;;;40.03;24.75;;;;;;;1.25;84.65;97495.66;4176522;28;20296;-83
2022/12/12 06:29:18;;;;;;;38.25;24.75;;;;;;;1.24;84.69;97498.28;4183153;28;20335;-84
2022/12/12 06:31:21;;;;;;;37.03;19.05;;;;;;;1.27;84.71;97478.44;4195946;28;21548;-83
2022/12/12 06:33:26;;;;;;;28.38;16.95;;;;;;;1.29;84.61;97496.34;4181235;28;20595;-84
2022/12/12 06:35:29;;;;;;;25.35;15.93;;;;;;;1.26;85.16;97492.16;4185377;28;20216;-84
2022/12/12 06:37:32;;;;;;;26.08;16.77;;;;;;;1.27;85.05;97498.16;4176775;28;20202;-83
2022/12/12 06:39:37;;;;;;;32.60;17.38;;;;;;;1.26;84.66;97488.78;4198501;28;20213;-83
2022/12/12 06:41:40;;;;;;;31.05;17.20;;;;;;;1.26;85.07;97488.78;4194007;28;20213;-84
2022/12/12 06:43:43;;;;;;;31.90;15.77;;;;;;;1.26;85.11;97496.47;4188987;28;20762;-83
2022/12/12 06:45:46;;;;;;;34.47;17.05;;;;;;;1.28;84.81;97495.53;4173896;28;20216;-83
2022/12/12 06:47:51;;;;;;;30.85;16.60;;;;;;;1.27;84.91;97495.59;4185850;28;20226;-83
2022/12/12 06:49:54;;;;;;;31.08;17.08;;;;;;;1.27;85.45;97504.13;4183650;28;20692;-83
2022/12/12 06:51:57;;;;;;;33.90;17.45;;;;;;;1.33;85.11;97509.00;4193251;28;20217;-84
2022/12/12 06:54:00;;;;;;;34.40;19.48;;;;;;;1.34;85.22;97508.13;4193652;28;20247;-83
2022/12/12 06:56:07;;;;;;;40.08;23.35;;;;;;;1.34;85.26;97508.13;4192584;28;20684;-83
2022/12/12 06:58:10;;;;;;;35.97;21.55;;;;;;;1.35;84.79;97507.19;4184624;28;20242;-85
2022/12/12 07:00:15;;;;;;;30.20;17.20;;;;;;;1.37;85.07;97515.69;4198866;28;21827;-83
2022/12/12 07:02:18;;;;;;;27.52;18.40;;;;;;;1.35;85.77;97514.06;4175967;28;20205;-84
2022/12/12 07:04:29;;;;;;;31.63;15.23;;;;;;;1.32;85.28;97515.03;4188062;28;20236;-84
2022/12/12 07:06:32;;;;;;;28.73;15.85;;;;;;;1.31;85.49;97505.66;4184504;28;20669;-84
2022/12/12 07:08:36;;;;;;;29.40;15.85;;;;;;;1.30;85.02;97518.56;4200825;28;20219;-83
2022/12/12 07:10:39;;;;;;;30.27;17.17;;;;;;;1.33;85.18;97518.44;4193782;28;20204;-84
2022/12/12 07:12:44;;;;;;;30.58;17.20;;;;;;;1.32;84.89;97517.59;4175995;28;20228;-84
2022/12/12 07:14:49;;;;;;;31.05;18.35;;;;;;;1.29;85.15;97522.03;4202271;28;20224;-83
2022/12/12 07:16:53;;;;;;;29.83;17.40;;;;;;;1.28;85.57;97516.06;4192294;28;20616;-85
2022/12/12 07:18:56;;;;;;;33.17;17.98;;;;;;;1.29;85.21;97516.91;4201575;28;20240;-83
2022/12/12 07:20:59;;;;;;;40.65;23.35;;;;;;;1.33;85.40;97513.31;4193775;28;20201;-83
2022/12/12 07:23:02;;;;;;;49.63;27.48;;;;;;;1.35;85.11;97516.63;4172866;28;20263;-85
2022/12/12 07:25:07;;;;;;;31.35;18.77;;;;;;;1.38;84.85;97522.47;4183295;28;20776;-84
2022/12/12 07:27:10;;;;;;;31.08;17.08;;;;;;;1.36;84.90;97523.47;4210046;28;20213;-82
2022/12/12 07:29:20;;;;;;;32.90;16.52;;;;;;;1.34;84.57;97523.53;4196167;28;20208;-83
2022/12/12 07:31:25;;;;;;;30.90;17.85;;;;;;;1.34;84.72;97526.09;4182658;28;20230;-83
2022/12/12 07:33:28;;;;;;;28.42;17.30;;;;;;;1.36;84.92;97533.72;4194623;28;20205;-83
2022/12/12 07:35:45;;;;;;;35.95;18.40;;;;;;;1.35;84.91;97535.44;4182027;28;20732;-84
2022/12/12 07:37:48;;;;;;;36.08;19.15;;;;;;;1.35;85.18;97542.31;4196420;28;20189;-84
2022/12/12 07:39:51;;;;;;;37.85;21.00;;;;;;;1.36;84.90;97539.69;4202730;28;20215;-83
2022/12/12 07:41:54;;;;;;;32.60;17.70;;;;;;;1.36;84.60;97538.88;4181727;28;20209;-82
2022/12/12 07:43:59;;;;;;;32.22;17.60;;;;;;;1.40;84.67;97546.38;4197268;28;20561;-82
2022/12/12 07:46:06;;;;;;;34.17;19.23;;;;;;;1.39;84.99;97548.09;4187385;28;20245;-83
2022/12/12 07:48:09;;;;;;;46.03;22.90;;;;;;;1.42;84.70;97547.13;4199739;28;20197;-83
2022/12/12 07:50:13;;;;;;;34.45;19.33;;;;;;;1.44;85.04;97551.31;4187502;28;20205;-83
2022/12/12 07:52:16;;;;;;;27.70;15.90;;;;;;;1.43;84.60;97541.13;4195665;28;20638;-83
2022/12/12 07:54:19;;;;;;;26.95;15.90;;;;;;;1.39;84.71;97542.94;4180212;28;20229;-82
2022/12/12 07:56:22;;;;;;;39.00;19.27;;;;;;;1.40;85.37;97547.19;4188991;28;20579;-83
2022/12/12 07:58:25;;;;;;;37.38;20.48;;;;;;;1.42;85.58;97545.41;4178160;28;20205;-84
2022/12/12 08:00:28;;;;;;;36.55;19.23;;;;;;;1.47;85.33;97553.75;4181307;28;20217;-83
2022/12/12 08:02:33;;;;;;;37.70;18.30;;;;;;;1.54;85.71;97554.34;4192532;28;21229;-83
2022/12/12 08:04:36;;;;;;;30.92;18.50;;;;;;;1.60;84.99;97554.91;4196605;28;20217;-84
2022/12/12 08:06:40;;;;;;;32.15;18.95;;;;;;;1.63;85.56;97559.91;4201007;28;20211;-85
2022/12/12 08:08:43;;;;;;;28.33;17.05;;;;;;;1.70;85.71;97561.34;4185836;28;20205;-82
2022/12/12 08:10:46;;;;;;;29.58;17.10;;;;;;;1.79;85.20;97563.53;4180367;28;20213;-86
2022/12/12 08:12:49;;;;;;;30.45;17.75;;;;;;;1.84;84.87;97553.06;4184504;28;20657;-85
2022/12/12 08:14:53;;;;;;;32.28;16.70;;;;;;;1.83;85.15;97562.47;4179814;28;20313;-84
2022/12/12 08:16:56;;;;;;;32.30;17.23;;;;;;;1.80;85.04;97565.16;4195644;28;20223;-85
2022/12/12 08:19:00;;;;;;;29.25;16.05;;;;;;;1.79;85.08;97563.53;4190582;28;20210;-85
2022/12/12 08:21:07;;;;;;;30.40;16.25;;;;;;;1.81;84.85;97566.84;4193604;28;20251;-85
2022/12/12 08:23:10;;;;;;;29.98;15.95;;;;;;;1.79;84.53;97563.53;4189391;28;20214;-85
2022/12/12 08:25:13;;;;;;;27.50;16.00;;;;;;;1.82;85.06;97572.81;4191093;28;20800;-86
2022/12/12 08:27:16;;;;;;;27.52;16.38;;;;;;;1.85;85.03;97570.13;4177922;28;20264;-86
2022/12/12 08:29:20;;;;;;;30.13;16.40;;;;;;;1.85;84.81;97573.53;4190121;28;21304;-87
2022/12/12 08:31:23;;;;;;;28.13;16.38;;;;;;;1.86;84.36;97576.94;4182645;28;20201;-86
2022/12/12 08:33:27;;;;;;;32.78;18.60;;;;;;;1.81;84.46;97574.56;4193306;28;20212;-84
2022/12/12 08:35:32;;;;;;;44.22;22.80;;;;;;;1.83;84.13;97579.63;4180230;28;20222;-85
2022/12/12 08:37:36;;;;;;;48.05;23.13;;;;;;;1.78;84.34;97582.41;4204438;28;20636;-84
2022/12/12 08:39:41;;;;;;;84.78;37.85;;;;;;;1.79;85.33;97583.22;4203835;28;20208;-84
2022/12/12 08:41:47;;;;;;;51.63;25.33;;;;;;;1.83;85.09;97592.47;4188315;28;20315;-84
2022/12/12 08:43:52;;;;;;;45.03;21.20;;;;;;;1.84;85.05;97596.72;4183505;28;20214;-84
2022/12/12 08:46:02;;;;;;;35.92;20.33;;;;;;;1.85;85.23;97594.09;4198959;28;20217;-85
2022/12/12 08:48:06;;;;;;;35.50;21.75;;;;;;;1.87;85.26;97600.81;4188091;28;20232;-84
2022/12/12 08:50:11;;;;;;;38.55;20.20;;;;;;;1.90;85.44;97599.88;4177381;28;20253;-83
2022/12/12 08:52:17;;;;;;;37.95;19.80;;;;;;;1.86;83.67;97603.47;4195394;28;20607;-83
2022/12/12 08:54:20;;;;;;;34.13;18.70;;;;;;;1.74;83.87;97600.56;4196438;28;20204;-84
2022/12/12 08:56:23;;;;;;;34.50;21.15;;;;;;;1.73;83.94;97602.31;4194602;28;20723;-83
2022/12/12 08:58:27;;;;;;;36.47;18.55;;;;;;;1.77;84.09;97598.69;4190765;28;20299;-84
2022/12/12 09:00:31;;;;;;;34.92;21.40;;;;;;;1.79;84.07;97601.22;4202803;28;21679;-84
2022/12/12 09:02:34;;;;;;;37.25;17.90;;;;;;;1.78;83.89;97602.97;4202310;28;20210;-84
2022/12/12 09:04:38;;;;;;;35.22;17.95;;;;;;;1.85;84.92;97606.09;4192292;28;20348;-84
2022/12/12 09:06:44;;;;;;;37.92;18.92;;;;;;;1.93;84.24;97604.88;4203278;28;20201;-85
2022/12/12 09:08:49;;;;;;;34.75;18.05;;;;;;;2.01;84.02;97613.91;4193463;28;20331;-83
2022/12/12 09:10:53;;;;;;;32.47;17.48;;;;;;;2.06;83.29;97612.00;4181726;28;21040;-83
2022/12/12 09:12:56;;;;;;;37.30;19.17;;;;;;;2.11;83.16;97617.78;4181199;28;20213;-83
2022/12/12 09:14:59;;;;;;;32.80;17.55;;;;;;;2.16;83.47;97612.44;4194627;28;20221;-84
2022/12/12 09:17:02;;;;;;;34.67;19.30;;;;;;;2.18;83.10;97610.63;4178023;28;20213;-84
2022/12/12 09:19:05;;;;;;;37.20;19.38;;;;;;;2.20;83.32;97609.66;4179075;28;20217;-82
2022/12/12 09:21:09;;;;;;;36.17;19.40;;;;;;;2.27;83.52;97615.38;4196586;28;20201;-84
2022/12/12 09:23:13;;;;;;;38.80;20.05;;;;;;;2.27;83.09;97615.38;4195785;28;20200;-83
2022/12/12 09:25:20;;;;;;;40.47;19.98;;;;;;;2.32;83.14;97610.88;4184283;28;21190;-82
2022/12/12 09:27:33;;;;;;;39.33;19.20;;;;;;;2.37;82.88;97617.47;4176874;28;20596;-82
2022/12/12 09:29:36;;;;;;;39.20;20.75;;;;;;;2.36;83.01;97619.22;4182765;28;20293;-83
2022/12/12 09:31:39;;;;;;;33.88;18.55;;;;;;;2.35;82.55;97616.72;4199968;28;20219;-82
2022/12/12 09:33:43;;;;;;;37.05;19.75;;;;;;;2.30;82.71;97616.09;4203922;28;20663;-84
2022/12/12 09:35:47;;;;;;;35.00;19.33;;;;;;;2.29;82.95;97609.28;4180300;28;20236;-83
2022/12/12 09:37:53;;;;;;;38.55;20.23;;;;;;;2.27;83.14;97613.66;4183768;28;20205;-83
2022/12/12 09:39:58;;;;;;;40.35;20.92;;;;;;;2.28;82.92;97619.63;4183362;28;20197;-83
2022/12/12 09:42:11;;;;;;;32.85;18.52;;;;;;;2.27;83.02;97613.66;4193632;28;20197;-83
2022/12/12 09:44:21;;;;;;;33.55;18.58;;;;;;;2.30;82.67;97615.25;4193856;28;20193;-85
2022/12/12 09:46:30;;;;;;;34.50;20.00;;;;;;;2.36;83.56;97614.09;4179891;28;20657;-85
2022/12/12 09:48:41;;;;;;;37.60;20.27;;;;;;;2.40;82.89;97612.19;4185313;28;20808;-84
2022/12/12 09:50:48;;;;;;;38.15;20.73;;;;;;;2.40;82.89;97613.03;4195742;28;20641;-84
2022/12/12 09:52:52;;;;;;;35.75;20.02;;;;;;;2.45;83.21;97616.25;4186332;28;20202;-85
2022/12/12 09:54:55;;;;;;;38.63;21.08;;;;;;;2.50;83.08;97609.16;4194711;28;20217;-86